sensor_id;sensor_type;location;lat;lon;timestamp;pressure;altitude;pressure_sealevel;temperature;humidity
37878;BME280;23715;53.652;8.516;2023-04-28T00:03:10;101979.19;;;5.20;100.00
37878;BME280;23715;53.652;8.516;2023-04-28T00:08:11;101977.42;;;4.90;100.00
37878;BME280;23715;53.652;8.516;2023-04-28T00:13:11;101968.22;;;4.97;100.00
37878;BME280;23715;53.652;8.516;2023-04-28T00:18:10;101972.81;;;4.94;100.00
37878;BME280;23715;53.652;8.516;2023-04-28T00:23:10;101974.79;;;4.99;100.00
37878;BME280;23715;53.652;8.516;2023-04-28T00:28:09;101966.86;;;5.07;100.00
37878;BME280;23715;53.652;8.516;2023-04-28T00:33:09;101960.54;;;5.00;100.00
37878;BME280;23715;53.652;8.516;2023-04-28T00:38:08;101955.05;;;5.13;100.00
37878;BME280;23715;53.652;8.516;2023-04-28T00:43:08;101955.04;;;4.63;100.00
37878;BME280;23715;53.652;8.516;2023-04-28T00:48:07;101953.83;;;4.81;100.00
37878;BME280;23715;53.652;8.516;2023-04-28T00:53:07;101952.17;;;4.58;100.00
37878;BME280;23715;53.652;8.516;2023-04-28T00:58:10;101943.42;;;4.34;100.00
37878;BME280;23715;53.652;8.516;2023-04-28T01:03:09;101943.09;;;4.41;100.00
37878;BME280;23715;53.652;8.516;2023-04-28T01:08:09;101941.61;;;4.34;100.00
37878;BME280;23715;53.652;8.516;2023-04-28T01:13:08;101940.42;;;4.41;100.00
37878;BME280;23715;53.652;8.516;2023-04-28T01:18:08;101936.03;;;4.61;100.00
37878;BME280;23715;53.652;8.516;2023-04-28T01:23:12;101931.23;;;4.79;100.00
37878;BME280;23715;53.652;8.516;2023-04-28T01:28:13;101932.31;;;4.75;100.00
37878;BME280;23715;53.652;8.516;2023-04-28T01:33:12;101929.11;;;4.57;100.00
37878;BME280;23715;53.652;8.516;2023-04-28T01:38:13;101916.84;;;4.32;100.00
37878;BME280;23715;53.652;8.516;2023-04-28T01:43:13;101913.74;;;4.33;100.00
37878;BME280;23715;53.652;8.516;2023-04-28T01:48:12;101915.73;;;4.27;100.00
37878;BME280;23715;53.652;8.516;2023-04-28T01:53:11;101904.73;;;4.45;100.00
37878;BME280;23715;53.652;8.516;2023-04-28T01:58:12;101896.95;;;4.51;100.00
37878;BME280;23715;53.652;8.516;2023-04-28T02:03:12;101892.23;;;4.27;100.00
37878;BME280;23715;53.652;8.516;2023-04-28T02:08:11;101886.34;;;4.19;100.00
37878;BME280;23715;53.652;8.516;2023-04-28T02:13:11;101879.69;;;4.19;100.00
37878;BME280;23715;53.652;8.516;2023-04-28T02:18:10;101878.44;;;4.27;100.00
37878;BME280;23715;53.652;8.516;2023-04-28T02:23:12;101869.02;;;3.98;100.00
37878;BME280;23715;53.652;8.516;2023-04-28T02:28:14;101867.16;;;4.00;100.00
37878;BME280;23715;53.652;8.516;2023-04-28T02:33:13;101865.05;;;4.08;100.00
37878;BME280;23715;53.652;8.516;2023-04-28T02:38:12;101852.14;;;4.30;100.00
37878;BME280;23715;53.652;8.516;2023-04-28T02:43:12;101840.30;;;4.37;100.00
37878;BME280;23715;53.652;8.516;2023-04-28T02:48:11;101837.48;;;4.09;100.00
37878;BME280;23715;53.652;8.516;2023-04-28T02:53:11;101827.97;;;3.83;100.00
37878;BME280;23715;53.652;8.516;2023-04-28T02:58:10;101825.59;;;4.18;100.00
37878;BME280;23715;53.652;8.516;2023-04-28T03:03:10;101812.80;;;3.85;100.00
37878;BME280;23715;53.652;8.516;2023-04-28T03:08:09;101812.23;;;3.77;100.00
37878;BME280;23715;53.652;8.516;2023-04-28T03:13:09;101809.20;;;3.86;100.00
37878;BME280;23715;53.652;8.516;2023-04-28T03:18:09;101801.27;;;3.85;100.00
37878;BME280;23715;53.652;8.516;2023-04-28T03:23:08;101790.26;;;4.04;100.00
37878;BME280;23715;53.652;8.516;2023-04-28T03:28:08;101782.81;;;4.02;100.00
37878;BME280;23715;53.652;8.516;2023-04-28T03:33:08;101783.98;;;4.05;100.00
37878;BME280;23715;53.652;8.516;2023-04-28T03:38:09;101767.73;;;4.11;100.00
37878;BME280;23715;53.652;8.516;2023-04-28T03:43:09;101767.08;;;4.17;100.00
37878;BME280;23715;53.652;8.516;2023-04-28T03:48:10;101756.56;;;3.83;100.00
37878;BME280;23715;53.652;8.516;2023-04-28T03:53:10;101740.56;;;3.95;100.00
37878;BME280;23715;53.652;8.516;2023-04-28T03:58:09;101734.20;;;4.18;100.00
37878;BME280;23715;53.652;8.516;2023-04-28T04:03:10;101731.36;;;4.12;100.00
37878;BME280;23715;53.652;8.516;2023-04-28T04:08:09;101718.54;;;3.91;100.00
37878;BME280;23715;53.652;8.516;2023-04-28T04:13:11;101711.53;;;3.88;100.00
37878;BME280;23715;53.652;8.516;2023-04-28T04:18:10;101709.33;;;4.08;100.00
37878;BME280;23715;53.652;8.516;2023-04-28T04:23:11;101697.41;;;4.07;100.00
37878;BME280;23715;53.652;8.516;2023-04-28T04:28:11;101693.92;;;4.25;100.00
37878;BME280;23715;53.652;8.516;2023-04-28T04:33:10;101677.97;;;4.53;100.00
37878;BME280;23715;53.652;8.516;2023-04-28T04:38:10;101678.50;;;4.70;100.00
37878;BME280;23715;53.652;8.516;2023-04-28T04:43:11;101669.21;;;4.87;100.00
37878;BME280;23715;53.652;8.516;2023-04-28T04:48:12;101672.05;;;5.30;100.00
37878;BME280;23715;53.652;8.516;2023-04-28T04:53:12;101669.38;;;5.47;100.00
37878;BME280;23715;53.652;8.516;2023-04-28T04:58:11;101670.14;;;5.75;100.00
37878;BME280;23715;53.652;8.516;2023-04-28T05:03:15;101661.59;;;6.11;100.00
37878;BME280;23715;53.652;8.516;2023-04-28T05:08:15;101655.76;;;6.20;100.00
37878;BME280;23715;53.652;8.516;2023-04-28T05:13:15;101644.06;;;6.38;100.00
37878;BME280;23715;53.652;8.516;2023-04-28T05:18:14;101640.18;;;6.60;100.00
37878;BME280;23715;53.652;8.516;2023-04-28T05:23:17;101637.69;;;6.96;100.00
37878;BME280;23715;53.652;8.516;2023-04-28T05:28:16;101634.11;;;7.04;100.00
37878;BME280;23715;53.652;8.516;2023-04-28T05:33:17;101626.05;;;6.97;100.00
37878;BME280;23715;53.652;8.516;2023-04-28T05:38:23;101623.81;;;7.12;100.00
37878;BME280;23715;53.652;8.516;2023-04-28T05:43:22;101614.85;;;7.13;100.00
37878;BME280;23715;53.652;8.516;2023-04-28T05:48:26;101610.20;;;7.31;100.00
37878;BME280;23715;53.652;8.516;2023-04-28T05:53:25;101600.88;;;7.60;100.00
37878;BME280;23715;53.652;8.516;2023-04-28T05:58:28;101598.60;;;7.61;100.00
37878;BME280;23715;53.652;8.516;2023-04-28T06:03:29;101591.62;;;7.80;100.00
37878;BME280;23715;53.652;8.516;2023-04-28T06:08:35;101590.13;;;8.25;100.00
37878;BME280;23715;53.652;8.516;2023-04-28T06:13:32;101577.41;;;8.43;100.00
37878;BME280;23715;53.652;8.516;2023-04-28T06:18:33;101569.37;;;8.43;100.00
37878;BME280;23715;53.652;8.516;2023-04-28T06:23:34;101558.48;;;8.58;100.00
37878;BME280;23715;53.652;8.516;2023-04-28T06:28:38;101556.22;;;8.72;100.00
37878;BME280;23715;53.652;8.516;2023-04-28T06:38:40;101545.17;;;8.97;100.00
37878;BME280;23715;53.652;8.516;2023-04-28T06:43:44;101539.47;;;9.22;100.00
37878;BME280;23715;53.652;8.516;2023-04-28T06:48:50;101534.50;;;9.35;100.00
37878;BME280;23715;53.652;8.516;2023-04-28T06:53:54;101525.47;;;9.49;100.00
37878;BME280;23715;53.652;8.516;2023-04-28T06:58:56;101527.56;;;9.51;100.00
37878;BME280;23715;53.652;8.516;2023-04-28T07:04:02;101520.41;;;9.57;100.00
37878;BME280;23715;53.652;8.516;2023-04-28T07:09:01;101509.61;;;9.65;100.00
37878;BME280;23715;53.652;8.516;2023-04-28T07:14:23;101499.52;;;9.68;100.00
37878;BME280;23715;53.652;8.516;2023-04-28T07:19:20;101486.94;;;9.69;100.00
37878;BME280;23715;53.652;8.516;2023-04-28T07:24:22;101482.49;;;9.81;100.00
37878;BME280;23715;53.652;8.516;2023-04-28T07:29:26;101483.88;;;9.86;100.00
37878;BME280;23715;53.652;8.516;2023-04-28T07:34:31;101472.95;;;9.95;100.00
37878;BME280;23715;53.652;8.516;2023-04-28T07:39:30;101469.38;;;10.13;100.00
37878;BME280;23715;53.652;8.516;2023-04-28T07:44:35;101465.62;;;10.15;100.00
37878;BME280;23715;53.652;8.516;2023-04-28T07:49:31;101460.03;;;10.24;100.00
37878;BME280;23715;53.652;8.516;2023-04-28T07:54:30;101453.67;;;10.38;100.00
37878;BME280;23715;53.652;8.516;2023-04-28T07:59:31;101444.89;;;10.42;100.00
37878;BME280;23715;53.652;8.516;2023-04-28T08:04:33;101437.00;;;10.57;100.00
37878;BME280;23715;53.652;8.516;2023-04-28T08:09:34;101435.66;;;10.57;100.00
37878;BME280;23715;53.652;8.516;2023-04-28T08:14:34;101432.25;;;10.61;100.00
37878;BME280;23715;53.652;8.516;2023-04-28T08:19:34;101426.75;;;10.73;100.00
37878;BME280;23715;53.652;8.516;2023-04-28T08:24:35;101423.71;;;10.72;100.00
37878;BME280;23715;53.652;8.516;2023-04-28T08:29:34;101433.77;;;10.82;100.00
37878;BME280;23715;53.652;8.516;2023-04-28T08:34:34;101434.52;;;10.95;100.00
37878;BME280;23715;53.652;8.516;2023-04-28T08:39:50;101416.55;;;11.12;100.00
37878;BME280;23715;53.652;8.516;2023-04-28T08:44:49;101408.58;;;11.50;100.00
37878;BME280;23715;53.652;8.516;2023-04-28T08:49:58;101400.48;;;11.67;100.00
37878;BME280;23715;53.652;8.516;2023-04-28T08:55:09;101387.41;;;12.01;100.00
37878;BME280;23715;53.652;8.516;2023-04-28T09:00:17;101382.61;;;12.10;100.00
37878;BME280;23715;53.652;8.516;2023-04-28T09:05:29;101376.82;;;12.20;100.00
37878;BME280;23715;53.652;8.516;2023-04-28T09:15:51;101360.77;;;12.19;100.00
37878;BME280;23715;53.652;8.516;2023-04-28T09:26:10;101355.76;;;12.41;100.00
37878;BME280;23715;53.652;8.516;2023-04-28T09:46:57;101343.75;;;12.76;100.00
37878;BME280;23715;53.652;8.516;2023-04-28T09:52:01;101333.67;;;12.78;100.00
37878;BME280;23715;53.652;8.516;2023-04-28T09:56:59;101333.91;;;12.96;100.00
37878;BME280;23715;53.652;8.516;2023-04-28T10:01:59;101326.16;;;12.97;100.00
37878;BME280;23715;53.652;8.516;2023-04-28T10:07:00;101322.43;;;13.03;100.00
37878;BME280;23715;53.652;8.516;2023-04-28T10:12:11;101313.16;;;13.21;100.00
37878;BME280;23715;53.652;8.516;2023-04-28T10:17:08;101320.23;;;13.13;100.00
37878;BME280;23715;53.652;8.516;2023-04-28T10:27:28;101302.16;;;13.34;100.00
37878;BME280;23715;53.652;8.516;2023-04-28T10:32:25;101292.83;;;13.33;100.00
37878;BME280;23715;53.652;8.516;2023-04-28T10:43:02;101287.75;;;13.08;100.00
37878;BME280;23715;53.652;8.516;2023-04-28T10:48:00;101287.75;;;13.08;100.00
37878;BME280;23715;53.652;8.516;2023-04-28T10:53:03;101286.11;;;13.02;100.00
37878;BME280;23715;53.652;8.516;2023-04-28T11:08:38;101281.13;;;13.22;100.00
37878;BME280;23715;53.652;8.516;2023-04-28T11:13:35;101275.99;;;13.19;100.00
37878;BME280;23715;53.652;8.516;2023-04-28T11:23:54;101260.37;;;13.23;100.00
37878;BME280;23715;53.652;8.516;2023-04-28T11:28:56;101246.08;;;13.17;100.00
37878;BME280;23715;53.652;8.516;2023-04-28T11:34:05;101247.43;;;13.17;100.00
37878;BME280;23715;53.652;8.516;2023-04-28T11:39:06;101252.17;;;13.09;100.00
37878;BME280;23715;53.652;8.516;2023-04-28T11:49:19;101253.25;;;13.22;100.00
37878;BME280;23715;53.652;8.516;2023-04-28T11:54:25;101251.89;;;13.22;100.00
37878;BME280;23715;53.652;8.516;2023-04-28T11:59:26;101252.81;;;13.32;100.00
37878;BME280;23715;53.652;8.516;2023-04-28T12:04:29;101250.55;;;13.22;100.00
37878;BME280;23715;53.652;8.516;2023-04-28T12:09:36;101251.80;;;13.33;100.00
37878;BME280;23715;53.652;8.516;2023-04-28T12:19:55;101244.67;;;13.22;100.00
37878;BME280;23715;53.652;8.516;2023-04-28T12:30:29;101238.89;;;13.21;100.00
37878;BME280;23715;53.652;8.516;2023-04-28T12:35:27;101239.59;;;13.14;100.00
37878;BME280;23715;53.652;8.516;2023-04-28T12:40:32;101239.33;;;13.17;100.00
37878;BME280;23715;53.652;8.516;2023-04-28T12:45:29;101223.41;;;13.23;100.00
37878;BME280;23715;53.652;8.516;2023-04-28T12:50:30;101225.89;;;13.21;100.00
37878;BME280;23715;53.652;8.516;2023-04-28T12:55:33;101211.59;;;13.30;100.00
37878;BME280;23715;53.652;8.516;2023-04-28T13:00:32;101222.27;;;13.41;100.00
37878;BME280;23715;53.652;8.516;2023-04-28T13:05:35;101202.47;;;13.51;100.00
37878;BME280;23715;53.652;8.516;2023-04-28T13:10:40;101199.57;;;13.38;100.00
37878;BME280;23715;53.652;8.516;2023-04-28T13:15:41;101201.90;;;13.37;100.00
37878;BME280;23715;53.652;8.516;2023-04-28T13:20:44;101198.86;;;13.36;100.00
37878;BME280;23715;53.652;8.516;2023-04-28T13:25:45;101193.53;;;13.31;100.00
37878;BME280;23715;53.652;8.516;2023-04-28T13:30:45;101195.83;;;13.29;100.00
37878;BME280;23715;53.652;8.516;2023-04-28T13:35:44;101177.11;;;13.38;100.00
37878;BME280;23715;53.652;8.516;2023-04-28T13:40:46;101169.21;;;13.40;100.00
37878;BME280;23715;53.652;8.516;2023-04-28T13:45:45;101167.86;;;13.40;100.00
37878;BME280;23715;53.652;8.516;2023-04-28T13:50:45;101159.34;;;13.45;100.00
37878;BME280;23715;53.652;8.516;2023-04-28T13:55:50;101158.32;;;13.56;100.00
37878;BME280;23715;53.652;8.516;2023-04-28T14:00:46;101159.26;;;13.60;100.00
37878;BME280;23715;53.652;8.516;2023-04-28T14:05:45;101158.11;;;13.63;100.00
37878;BME280;23715;53.652;8.516;2023-04-28T14:10:47;101148.45;;;13.60;100.00
37878;BME280;23715;53.652;8.516;2023-04-28T14:15:54;101141.95;;;13.67;100.00
37878;BME280;23715;53.652;8.516;2023-04-28T14:20:51;101133.56;;;13.70;100.00
37878;BME280;23715;53.652;8.516;2023-04-28T14:25:51;101127.20;;;13.85;100.00
37878;BME280;23715;53.652;8.516;2023-04-28T14:31:01;101119.81;;;14.01;100.00
37878;BME280;23715;53.652;8.516;2023-04-28T14:36:00;101121.22;;;14.05;100.00
37878;BME280;23715;53.652;8.516;2023-04-28T14:41:00;101118.93;;;14.10;100.00
37878;BME280;23715;53.652;8.516;2023-04-28T14:46:01;101124.47;;;13.95;100.00
37878;BME280;23715;53.652;8.516;2023-04-28T14:51:02;101117.43;;;13.88;100.00
37878;BME280;23715;53.652;8.516;2023-04-28T14:56:05;101113.46;;;13.82;100.00
37878;BME280;23715;53.652;8.516;2023-04-28T15:01:08;101112.67;;;13.86;100.00
37878;BME280;23715;53.652;8.516;2023-04-28T15:06:10;101116.39;;;13.75;100.00
37878;BME280;23715;53.652;8.516;2023-04-28T15:11:14;101113.23;;;13.56;100.00
37878;BME280;23715;53.652;8.516;2023-04-28T15:16:15;101115.75;;;13.44;100.00
37878;BME280;23715;53.652;8.516;2023-04-28T15:21:18;101115.58;;;13.26;100.00
37878;BME280;23715;53.652;8.516;2023-04-28T15:26:21;101118.21;;;13.22;100.00
37878;BME280;23715;53.652;8.516;2023-04-28T15:31:22;101124.13;;;13.12;100.00
37878;BME280;23715;53.652;8.516;2023-04-28T15:36:23;101142.08;;;12.97;100.00
37878;BME280;23715;53.652;8.516;2023-04-28T15:41:30;101142.56;;;12.87;100.00
37878;BME280;23715;53.652;8.516;2023-04-28T15:46:29;101141.72;;;12.86;100.00
37878;BME280;23715;53.652;8.516;2023-04-28T15:51:31;101137.80;;;12.75;100.00
37878;BME280;23715;53.652;8.516;2023-04-28T15:56:30;101127.98;;;12.74;100.00
37878;BME280;23715;53.652;8.516;2023-04-28T16:01:30;101145.13;;;12.63;100.00
37878;BME280;23715;53.652;8.516;2023-04-28T16:06:30;101149.09;;;12.59;100.00
37878;BME280;23715;53.652;8.516;2023-04-28T16:11:34;101151.59;;;12.57;100.00
37878;BME280;23715;53.652;8.516;2023-04-28T16:16:36;101153.91;;;12.56;100.00
37878;BME280;23715;53.652;8.516;2023-04-28T16:21:36;101141.03;;;12.44;100.00
37878;BME280;23715;53.652;8.516;2023-04-28T16:26:36;101151.48;;;12.43;100.00
37878;BME280;23715;53.652;8.516;2023-04-28T16:31:37;101158.80;;;12.31;100.00
37878;BME280;23715;53.652;8.516;2023-04-28T16:36:38;101160.19;;;12.25;100.00
37878;BME280;23715;53.652;8.516;2023-04-28T16:41:38;101163.43;;;12.19;100.00
37878;BME280;23715;53.652;8.516;2023-04-28T16:46:38;101153.28;;;12.17;100.00
37878;BME280;23715;53.652;8.516;2023-04-28T16:51:37;101154.75;;;12.16;100.00
37878;BME280;23715;53.652;8.516;2023-04-28T16:56:37;101164.39;;;12.08;100.00
37878;BME280;23715;53.652;8.516;2023-04-28T17:01:36;101162.80;;;12.06;100.00
37878;BME280;23715;53.652;8.516;2023-04-28T17:06:36;101163.64;;;12.06;100.00
37878;BME280;23715;53.652;8.516;2023-04-28T17:11:35;101150.03;;;12.08;100.00
37878;BME280;23715;53.652;8.516;2023-04-28T17:16:38;101159.52;;;12.02;100.00
37878;BME280;23715;53.652;8.516;2023-04-28T17:21:48;101162.03;;;11.94;100.00
37878;BME280;23715;53.652;8.516;2023-04-28T17:26:42;101167.67;;;11.85;100.00
37878;BME280;23715;53.652;8.516;2023-04-28T17:31:45;101170.38;;;11.85;100.00
37878;BME280;23715;53.652;8.516;2023-04-28T17:41:52;101172.59;;;11.86;100.00
37878;BME280;23715;53.652;8.516;2023-04-28T17:46:56;101172.00;;;11.82;100.00
37878;BME280;23715;53.652;8.516;2023-04-28T17:51:59;101175.01;;;11.89;100.00
37878;BME280;23715;53.652;8.516;2023-04-28T17:56:58;101191.14;;;12.00;100.00
37878;BME280;23715;53.652;8.516;2023-04-28T18:01:59;101182.37;;;11.87;100.00
37878;BME280;23715;53.652;8.516;2023-04-28T18:07:13;101186.54;;;11.85;100.00
37878;BME280;23715;53.652;8.516;2023-04-28T18:12:00;101185.07;;;11.87;100.00
37878;BME280;23715;53.652;8.516;2023-04-28T18:17:01;101191.02;;;12.02;100.00
37878;BME280;23715;53.652;8.516;2023-04-28T18:22:01;101192.83;;;12.07;100.00
37878;BME280;23715;53.652;8.516;2023-04-28T18:27:01;101191.14;;;12.00;100.00
37878;BME280;23715;53.652;8.516;2023-04-28T18:32:01;101195.23;;;12.10;100.00
37878;BME280;23715;53.652;8.516;2023-04-28T18:37:05;101197.38;;;12.01;100.00
37878;BME280;23715;53.652;8.516;2023-04-28T18:47:10;101192.45;;;12.06;100.00
37878;BME280;23715;53.652;8.516;2023-04-28T18:52:16;101188.77;;;11.86;100.00
37878;BME280;23715;53.652;8.516;2023-04-28T18:57:14;101191.80;;;11.87;100.00
37878;BME280;23715;53.652;8.516;2023-04-28T19:02:28;101198.42;;;11.88;100.00
37878;BME280;23715;53.652;8.516;2023-04-28T19:07:28;101198.67;;;11.85;100.00
37878;BME280;23715;53.652;8.516;2023-04-28T19:17:33;101204.06;;;11.85;100.00
37878;BME280;23715;53.652;8.516;2023-04-28T19:22:38;101217.97;;;11.75;100.00
37878;BME280;23715;53.652;8.516;2023-04-28T19:27:41;101228.77;;;11.69;100.00
37878;BME280;23715;53.652;8.516;2023-04-28T19:32:41;101238.90;;;11.77;100.00
37878;BME280;23715;53.652;8.516;2023-04-28T19:37:40;101245.06;;;11.68;100.00
37878;BME280;23715;53.652;8.516;2023-04-28T19:42:45;101256.36;;;11.88;100.00
37878;BME280;23715;53.652;8.516;2023-04-28T19:47:44;101263.03;;;11.79;100.00
37878;BME280;23715;53.652;8.516;2023-04-28T19:52:47;101266.56;;;11.79;100.00
37878;BME280;23715;53.652;8.516;2023-04-28T19:57:46;101256.79;;;11.78;100.00
37878;BME280;23715;53.652;8.516;2023-04-28T20:02:46;101243.02;;;11.60;100.00
37878;BME280;23715;53.652;8.516;2023-04-28T20:07:46;101242.17;;;11.60;100.00
37878;BME280;23715;53.652;8.516;2023-04-28T20:12:50;101249.38;;;11.65;100.00
37878;BME280;23715;53.652;8.516;2023-04-28T20:17:49;101248.03;;;11.65;100.00
37878;BME280;23715;53.652;8.516;2023-04-28T20:22:49;101246.09;;;11.61;100.00
37878;BME280;23715;53.652;8.516;2023-04-28T20:27:50;101254.34;;;11.75;100.00
37878;BME280;23715;53.652;8.516;2023-04-28T20:32:50;101260.05;;;11.55;100.00
37878;BME280;23715;53.652;8.516;2023-04-28T20:37:49;101256.12;;;11.65;100.00
37878;BME280;23715;53.652;8.516;2023-04-28T20:42:50;101259.88;;;11.68;100.00
37878;BME280;23715;53.652;8.516;2023-04-28T20:47:50;101256.27;;;11.84;100.00
37878;BME280;23715;53.652;8.516;2023-04-28T20:52:49;101257.30;;;11.66;100.00
37878;BME280;23715;53.652;8.516;2023-04-28T20:57:49;101265.14;;;11.69;100.00
37878;BME280;23715;53.652;8.516;2023-04-28T21:02:48;101266.02;;;11.64;100.00
37878;BME280;23715;53.652;8.516;2023-04-28T21:07:51;101263.20;;;11.66;100.00
37878;BME280;23715;53.652;8.516;2023-04-28T21:12:51;101269.69;;;11.69;100.00
37878;BME280;23715;53.652;8.516;2023-04-28T21:17:51;101266.99;;;11.69;100.00
37878;BME280;23715;53.652;8.516;2023-04-28T21:22:50;101261.00;;;11.65;100.00
37878;BME280;23715;53.652;8.516;2023-04-28T21:27:50;101268.59;;;11.66;100.00
37878;BME280;23715;53.652;8.516;2023-04-28T21:32:57;101268.76;;;11.80;100.00
37878;BME280;23715;53.652;8.516;2023-04-28T21:37:55;101266.59;;;11.73;100.00
37878;BME280;23715;53.652;8.516;2023-04-28T21:42:57;101262.47;;;11.64;100.00
37878;BME280;23715;53.652;8.516;2023-04-28T21:48:00;101265.20;;;11.52;100.00
37878;BME280;23715;53.652;8.516;2023-04-28T21:53:00;101268.77;;;11.47;100.00
37878;BME280;23715;53.652;8.516;2023-04-28T21:58:04;101274.47;;;11.65;100.00
37878;BME280;23715;53.652;8.516;2023-04-28T22:03:07;101270.16;;;11.68;100.00
37878;BME280;23715;53.652;8.516;2023-04-28T22:08:08;101269.45;;;11.61;100.00
37878;BME280;23715;53.652;8.516;2023-04-28T22:13:08;101266.13;;;11.63;100.00
37878;BME280;23715;53.652;8.516;2023-04-28T22:18:10;101273.39;;;11.57;100.00
37878;BME280;23715;53.652;8.516;2023-04-28T22:23:08;101273.14;;;11.60;100.00
37878;BME280;23715;53.652;8.516;2023-04-28T22:28:08;101281.58;;;11.61;100.00
37878;BME280;23715;53.652;8.516;2023-04-28T22:33:11;101286.63;;;11.54;100.00
37878;BME280;23715;53.652;8.516;2023-04-28T22:38:10;101288.72;;;11.50;100.00
37878;BME280;23715;53.652;8.516;2023-04-28T22:43:12;101291.55;;;11.43;100.00
37878;BME280;23715;53.652;8.516;2023-04-28T22:48:15;101293.76;;;11.38;100.00
37878;BME280;23715;53.652;8.516;2023-04-28T22:53:14;101281.53;;;11.34;100.00
37878;BME280;23715;53.652;8.516;2023-04-28T22:58:17;101288.27;;;11.34;100.00
37878;BME280;23715;53.652;8.516;2023-04-28T23:03:18;101293.66;;;11.34;100.00
37878;BME280;23715;53.652;8.516;2023-04-28T23:08:18;101299.20;;;11.21;100.00
37878;BME280;23715;53.652;8.516;2023-04-28T23:13:22;101298.73;;;11.10;100.00
37878;BME280;23715;53.652;8.516;2023-04-28T23:18:26;101305.23;;;10.97;100.00
37878;BME280;23715;53.652;8.516;2023-04-28T23:23:27;101312.19;;;10.99;100.00
37878;BME280;23715;53.652;8.516;2023-04-28T23:28:27;101314.27;;;10.90;100.00
37878;BME280;23715;53.652;8.516;2023-04-28T23:33:26;101312.69;;;10.99;100.00
37878;BME280;23715;53.652;8.516;2023-04-28T23:38:31;101321.84;;;10.96;100.00
37878;BME280;23715;53.652;8.516;2023-04-28T23:43:35;101321.84;;;10.85;100.00
37878;BME280;23715;53.652;8.516;2023-04-28T23:48:34;101331.50;;;10.59;100.00
37878;BME280;23715;53.652;8.516;2023-04-28T23:53:33;101336.51;;;10.17;100.00
37878;BME280;23715;53.652;8.516;2023-04-28T23:58:33;101352.05;;;9.95;100.00
